createdAt,value
2022-08-30T00:01:32.719Z,13.25
2022-08-30T00:04:07.270Z,13.55
2022-08-30T00:09:12.426Z,13.48
2022-08-30T00:11:45.515Z,13.05
2022-08-30T00:14:18.021Z,13.03
2022-08-30T00:16:52.160Z,13.00
2022-08-30T00:19:25.242Z,13.60
2022-08-30T00:21:58.035Z,12.78
2022-08-30T00:24:30.914Z,12.65
2022-08-30T00:27:04.575Z,13.95
2022-08-30T00:29:38.164Z,13.32
2022-08-30T00:32:12.390Z,13.70
2022-08-30T00:34:45.062Z,13.78
2022-08-30T00:37:17.641Z,13.45
2022-08-30T00:39:50.929Z,13.98
2022-08-30T00:42:23.500Z,13.75
2022-08-30T00:44:56.286Z,13.60
2022-08-30T00:47:29.232Z,13.70
2022-08-30T00:50:01.758Z,13.85
2022-08-30T00:52:35.690Z,13.62
2022-08-30T00:55:09.066Z,13.43
2022-08-30T00:57:44.542Z,13.18
2022-08-30T01:00:19.155Z,13.53
2022-08-30T01:02:51.662Z,12.75
2022-08-30T01:05:25.419Z,13.48
2022-08-30T01:07:58.030Z,13.62
2022-08-30T01:10:31.147Z,13.55
2022-08-30T01:13:03.587Z,13.75
2022-08-30T01:15:36.145Z,13.72
2022-08-30T01:18:10.475Z,13.05
2022-08-30T01:21:13.237Z,13.80
2022-08-30T01:23:47.490Z,14.53
2022-08-30T01:26:21.980Z,14.43
2022-08-30T01:28:58.066Z,13.62
2022-08-30T01:31:31.505Z,13.60
2022-08-30T01:34:07.498Z,13.30
2022-08-30T01:36:44.702Z,13.53
2022-08-30T01:39:19.950Z,13.75
2022-08-30T01:41:53.135Z,12.85
2022-08-30T01:44:26.004Z,12.98
2022-08-30T01:46:58.959Z,13.22
2022-08-30T01:49:33.354Z,13.88
2022-08-30T01:52:07.308Z,13.15
2022-08-30T01:54:42.024Z,12.63
2022-08-30T01:57:17.919Z,12.60
2022-08-30T01:59:51.018Z,13.05
2022-08-30T02:02:27.048Z,13.10
2022-08-30T02:04:59.633Z,12.90
2022-08-30T02:07:32.646Z,13.98
2022-08-30T02:10:06.142Z,13.65
2022-08-30T02:12:39.466Z,13.63
2022-08-30T02:15:13.165Z,13.90
2022-08-30T02:17:47.760Z,13.07
2022-08-30T02:22:52.203Z,14.33
2022-08-30T02:25:25.937Z,13.05
2022-08-30T02:27:59.187Z,13.03
2022-08-30T02:30:32.087Z,12.73
2022-08-30T02:33:04.809Z,13.35
2022-08-30T02:35:39.462Z,13.48
2022-08-30T02:38:13.175Z,13.45
2022-08-30T02:40:46.169Z,13.57
2022-08-30T02:43:19.004Z,13.65
2022-08-30T02:45:51.920Z,13.78
2022-08-30T02:48:25.805Z,13.68
2022-08-30T02:50:59.280Z,13.18
2022-08-30T02:53:32.107Z,14.27
2022-08-30T02:56:04.766Z,14.15
2022-08-30T02:58:38.702Z,13.05
2022-08-30T03:01:13.903Z,13.53
2022-08-30T03:03:47.275Z,13.72
2022-08-30T03:06:20.019Z,14.18
2022-08-30T03:08:53.751Z,13.72
2022-08-30T03:11:26.276Z,14.15
2022-08-30T03:13:59.392Z,13.95
2022-08-30T03:16:32.649Z,14.87
2022-08-30T03:19:07.755Z,14.70
2022-08-30T03:21:40.772Z,14.80
2022-08-30T03:24:13.814Z,15.63
2022-08-30T03:26:47.026Z,14.87
2022-08-30T03:29:19.784Z,16.95
2022-08-30T03:31:53.761Z,15.75
2022-08-30T03:37:02.050Z,15.20
2022-08-30T03:39:34.816Z,16.25
2022-08-30T03:42:07.931Z,16.50
2022-08-30T03:47:14.818Z,16.23
2022-08-30T03:49:47.267Z,16.95
2022-08-30T03:52:19.762Z,15.68
2022-08-30T03:54:52.308Z,16.35
2022-08-30T03:57:25.864Z,16.77
2022-08-30T03:59:59.223Z,16.12
2022-08-30T04:02:32.391Z,16.52
2022-08-30T04:05:05.487Z,16.90
2022-08-30T04:07:38.303Z,16.45
2022-08-30T04:10:11.188Z,16.62
2022-08-30T04:12:49.359Z,16.73
2022-08-30T04:15:28.321Z,17.12
2022-08-30T04:18:02.735Z,18.45
2022-08-30T04:20:35.427Z,19.60
2022-08-30T04:23:13.733Z,16.57
2022-08-30T04:25:46.503Z,17.10
2022-08-30T04:28:20.044Z,17.50
2022-08-30T04:30:52.597Z,16.32
2022-08-30T04:33:25.356Z,17.65
2022-08-30T04:36:00.797Z,16.73
2022-08-30T04:38:34.218Z,18.05
2022-08-30T04:41:37.959Z,16.45
2022-08-30T04:44:19.075Z,19.25
2022-08-30T04:49:17.330Z,14.73
2022-08-30T04:51:50.000Z,14.85
2022-08-30T04:54:22.546Z,13.00
2022-08-30T04:56:55.068Z,12.95
2022-08-30T04:59:28.522Z,13.18
2022-08-30T05:02:01.597Z,12.60
2022-08-30T05:04:34.326Z,11.75
2022-08-30T05:08:54.223Z,13.43
2022-08-30T05:11:28.620Z,11.90
2022-08-30T05:14:01.647Z,11.75
2022-08-30T05:16:35.400Z,12.73
2022-08-30T05:19:08.226Z,11.80
2022-08-30T05:21:41.290Z,10.85
2022-08-30T05:24:14.063Z,11.25
2022-08-30T05:29:21.442Z,10.80
2022-08-30T05:31:53.914Z,10.28
2022-08-30T05:34:27.779Z,9.65
2022-08-30T05:37:00.209Z,8.88
2022-08-30T05:39:51.506Z,9.73
2022-08-30T05:42:09.722Z,8.50
2022-08-30T05:44:44.347Z,8.83
2022-08-30T05:47:17.045Z,9.45
2022-08-30T05:49:50.008Z,9.48
2022-08-30T05:52:22.397Z,9.25
2022-08-30T05:55:03.543Z,8.53
2022-08-30T05:57:41.355Z,9.23
2022-08-30T06:00:18.159Z,8.20
2022-08-30T06:02:54.831Z,7.92
2022-08-30T06:05:27.607Z,8.10
2022-08-30T06:08:00.092Z,7.67
2022-08-30T06:10:33.302Z,9.68
2022-08-30T06:13:06.616Z,7.83
2022-08-30T06:15:39.802Z,7.50
2022-08-30T06:18:13.455Z,7.72
2022-08-30T06:20:51.399Z,7.42
2022-08-30T06:23:24.859Z,7.35
2022-08-30T06:25:58.632Z,6.97
2022-08-30T06:28:32.464Z,6.80
2022-08-30T06:31:10.637Z,6.55
2022-08-30T06:33:44.395Z,6.55
2022-08-30T06:36:24.794Z,6.00
2022-08-30T06:38:58.395Z,5.53
2022-08-30T06:41:32.985Z,5.33
2022-08-30T06:44:06.047Z,5.20
2022-08-30T06:46:39.581Z,4.97
2022-08-30T06:49:12.836Z,5.30
2022-08-30T06:51:45.871Z,5.10
2022-08-30T06:54:18.241Z,4.92
2022-08-30T06:56:59.104Z,5.03
2022-08-30T06:59:26.212Z,4.83
2022-08-30T07:04:33.454Z,4.92
2022-08-30T07:07:06.227Z,4.47
2022-08-30T07:09:40.896Z,4.62
2022-08-30T07:12:15.314Z,4.60
2022-08-30T07:14:48.066Z,4.80
2022-08-30T07:17:25.529Z,4.55
2022-08-30T07:19:57.898Z,4.08
2022-08-30T07:22:30.340Z,4.35
2022-08-30T07:25:02.929Z,4.55
2022-08-30T07:27:37.725Z,3.67
2022-08-30T07:30:11.681Z,4.35
2022-08-30T07:32:44.525Z,4.05
2022-08-30T07:35:17.510Z,4.10
2022-08-30T07:37:50.633Z,4.25
2022-08-30T07:40:23.609Z,4.53
2022-08-30T07:42:57.269Z,4.00
2022-08-30T07:45:31.660Z,4.10
2022-08-30T07:48:04.579Z,4.10
2022-08-30T07:50:37.378Z,3.90
2022-08-30T07:53:11.266Z,4.30
2022-08-30T07:55:44.615Z,3.83
2022-08-30T07:58:18.106Z,3.17
2022-08-30T08:00:51.556Z,3.83
2022-08-30T08:03:25.146Z,3.52
2022-08-30T08:08:30.383Z,3.20
2022-08-30T08:11:20.388Z,3.42
2022-08-30T08:13:54.592Z,3.72
2022-08-30T08:16:29.185Z,3.55
2022-08-30T08:19:01.587Z,3.55
2022-08-30T08:21:35.187Z,3.52
2022-08-30T08:24:07.819Z,3.20
2022-08-30T08:26:41.913Z,3.47
2022-08-30T08:29:15.768Z,3.58
2022-08-30T08:31:48.249Z,3.37
2022-08-30T08:34:22.982Z,3.70
2022-08-30T08:39:27.805Z,3.30
2022-08-30T08:42:08.141Z,3.37
2022-08-30T08:44:57.902Z,3.77
2022-08-30T08:47:42.156Z,3.22
2022-08-30T08:50:22.622Z,3.10
2022-08-30T08:53:45.474Z,2.98
2022-08-30T08:55:56.871Z,3.30
2022-08-30T08:58:48.293Z,2.75
2022-08-30T09:01:24.109Z,3.08
2022-08-30T09:03:58.419Z,3.12
2022-08-30T09:06:59.805Z,3.10
2022-08-30T09:09:36.369Z,2.72
2022-08-30T09:12:11.081Z,2.60
2022-08-30T09:14:54.433Z,3.27
2022-08-30T09:17:27.115Z,2.80
2022-08-30T09:20:02.692Z,2.87
2022-08-30T09:22:39.283Z,3.10
2022-08-30T09:25:27.025Z,2.67
2022-08-30T09:28:14.751Z,2.87
2022-08-30T09:31:12.535Z,2.60
2022-08-30T09:34:07.001Z,3.05
2022-08-30T09:36:51.561Z,2.72
2022-08-30T09:39:35.650Z,3.40
2022-08-30T09:42:25.991Z,2.30
2022-08-30T09:45:00.529Z,3.77
2022-08-30T09:47:35.286Z,3.90
2022-08-30T09:50:18.081Z,3.08
2022-08-30T09:53:09.975Z,3.08
2022-08-30T09:56:00.860Z,2.83
2022-08-30T09:58:50.153Z,2.42
2022-08-30T10:01:27.198Z,2.50
2022-08-30T10:04:18.577Z,2.80
2022-08-30T10:07:01.405Z,2.70
2022-08-30T10:09:51.051Z,3.00
2022-08-30T10:12:37.518Z,2.75
2022-08-30T10:15:38.321Z,2.80
2022-08-30T10:18:26.393Z,2.67
2022-08-30T10:21:19.046Z,2.65
2022-08-30T10:23:59.989Z,2.67
2022-08-30T10:26:46.224Z,2.72
2022-08-30T10:29:31.416Z,2.50
2022-08-30T10:32:18.110Z,2.92
2022-08-30T10:35:05.028Z,2.33
2022-08-30T10:37:50.411Z,2.95
2022-08-30T10:40:55.410Z,2.60
2022-08-30T10:43:51.264Z,2.70
2022-08-30T10:46:55.576Z,3.02
2022-08-30T10:49:30.139Z,2.60
2022-08-30T10:52:38.405Z,2.58
2022-08-30T10:55:24.393Z,2.58
2022-08-30T10:58:03.189Z,2.47
2022-08-30T11:00:44.018Z,2.58
2022-08-30T11:03:33.130Z,2.42
2022-08-30T11:06:30.110Z,2.77
2022-08-30T11:09:35.912Z,2.40
2022-08-30T11:12:19.919Z,2.50
2022-08-30T11:14:54.186Z,2.97
2022-08-30T11:20:25.297Z,2.47
2022-08-30T11:23:30.554Z,2.55
2022-08-30T11:26:13.983Z,3.00
2022-08-30T11:28:52.988Z,2.77
2022-08-30T11:31:38.388Z,2.70
2022-08-30T11:34:12.908Z,2.42
2022-08-30T11:36:56.259Z,2.27
2022-08-30T11:39:50.246Z,2.22
2022-08-30T11:42:32.747Z,2.90
2022-08-30T11:45:29.583Z,3.58
2022-08-30T11:48:10.155Z,3.60
2022-08-30T11:50:56.443Z,2.80
2022-08-30T11:54:00.519Z,3.10
2022-08-30T11:59:49.292Z,2.33
2022-08-30T12:02:52.263Z,2.30
2022-08-30T12:05:51.480Z,2.33
2022-08-30T12:08:38.813Z,2.45
2022-08-30T12:11:19.791Z,2.80
2022-08-30T12:13:53.963Z,2.62
2022-08-30T12:19:21.286Z,2.30
2022-08-30T12:21:59.393Z,2.42
2022-08-30T12:24:40.401Z,2.25
2022-08-30T12:27:34.172Z,2.40
2022-08-30T12:30:10.046Z,2.12
2022-08-30T12:32:48.750Z,2.50
2022-08-30T12:35:28.345Z,2.42
2022-08-30T12:38:07.649Z,3.02
2022-08-30T12:40:41.720Z,2.35
2022-08-30T12:43:25.011Z,2.58
2022-08-30T12:46:07.502Z,8.75
2022-08-30T12:48:39.847Z,3.58
2022-08-30T12:51:15.084Z,2.70
2022-08-30T12:53:51.389Z,2.72
2022-08-30T12:56:40.628Z,2.47
2022-08-30T13:01:37.953Z,2.65
2022-08-30T13:04:22.998Z,2.20
2022-08-30T13:07:02.325Z,3.00
2022-08-30T13:09:44.163Z,3.00
2022-08-30T13:12:27.591Z,2.90
2022-08-30T13:15:21.919Z,2.65
2022-08-30T13:18:26.991Z,2.58
2022-08-30T13:21:28.330Z,3.30
2022-08-30T13:24:05.695Z,3.33
2022-08-30T13:26:41.113Z,3.72
2022-08-30T13:29:19.645Z,3.00
2022-08-30T13:31:52.143Z,3.05
2022-08-30T13:34:24.947Z,2.33
2022-08-30T13:37:01.179Z,2.70
2022-08-30T13:39:34.092Z,3.58
2022-08-30T13:44:43.646Z,4.05
2022-08-30T13:47:33.070Z,2.50
2022-08-30T13:49:52.823Z,3.65
2022-08-30T13:52:26.008Z,3.03
2022-08-30T13:54:58.676Z,2.98
2022-08-30T14:00:28.259Z,2.70
2022-08-30T14:03:01.973Z,2.08
2022-08-30T14:05:49.319Z,2.72
2022-08-30T14:10:51.555Z,3.37
2022-08-30T14:13:24.035Z,2.30
2022-08-30T14:18:32.259Z,2.35
2022-08-30T14:21:04.798Z,3.72
2022-08-30T14:23:38.087Z,5.10
2022-08-30T14:26:21.979Z,4.25
2022-08-30T14:28:54.949Z,2.47
2022-08-30T14:31:27.656Z,2.67
2022-08-30T14:34:04.220Z,2.45
2022-08-30T14:36:39.454Z,4.55
2022-08-30T14:39:16.010Z,2.72
2022-08-30T14:41:52.051Z,2.70
2022-08-30T14:44:25.138Z,3.20
2022-08-30T14:46:58.231Z,2.93
2022-08-30T14:49:32.677Z,2.90
2022-08-30T14:52:06.726Z,4.42
2022-08-30T14:54:40.432Z,3.12
2022-08-30T14:57:14.036Z,2.80
2022-08-30T14:59:48.613Z,4.33
2022-08-30T15:02:26.919Z,3.72
2022-08-30T15:04:56.824Z,3.35
2022-08-30T15:07:29.893Z,3.72
2022-08-30T15:10:02.474Z,2.70
2022-08-30T15:12:35.718Z,4.93
2022-08-30T15:15:28.998Z,2.70
2022-08-30T15:18:01.794Z,4.58
2022-08-30T15:20:34.853Z,6.12
2022-08-30T15:23:08.476Z,6.00
2022-08-30T15:25:42.423Z,3.60
2022-08-30T15:28:15.928Z,2.80
2022-08-30T15:30:50.363Z,2.60
2022-08-30T15:33:24.297Z,2.52
2022-08-30T15:35:57.095Z,2.60
2022-08-30T15:38:31.252Z,2.77
2022-08-30T15:41:07.974Z,3.75
2022-08-30T15:43:42.284Z,3.17
2022-08-30T15:46:30.917Z,3.20
2022-08-30T15:49:21.752Z,3.30
2022-08-30T15:51:54.730Z,3.72
2022-08-30T15:54:27.760Z,3.65
2022-08-30T15:57:01.440Z,11.93
2022-08-30T15:59:35.443Z,5.22
2022-08-30T16:02:08.876Z,6.83
2022-08-30T16:04:42.020Z,10.55
2022-08-30T16:07:15.189Z,15.15
2022-08-30T16:09:49.392Z,6.42
2022-08-30T16:12:23.910Z,6.60
2022-08-30T16:14:56.303Z,8.88
2022-08-30T16:17:28.752Z,5.87
2022-08-30T16:20:04.118Z,7.92
2022-08-30T16:22:37.519Z,6.13
2022-08-30T16:25:11.457Z,5.22
2022-08-30T16:27:45.375Z,4.33
2022-08-30T16:30:19.620Z,5.22
2022-08-30T16:32:52.059Z,4.03
2022-08-30T16:35:24.645Z,3.60
2022-08-30T16:37:59.415Z,4.72
2022-08-30T16:40:33.301Z,5.00
2022-08-30T16:43:09.087Z,4.47
2022-08-30T16:45:43.030Z,4.42
2022-08-30T16:48:16.699Z,5.45
2022-08-30T16:50:49.729Z,4.20
2022-08-30T16:53:23.359Z,3.65
2022-08-30T16:55:57.344Z,3.70
2022-08-30T16:58:30.104Z,4.30
2022-08-30T17:01:02.925Z,5.47
2022-08-30T17:03:36.406Z,5.30
2022-08-30T17:06:09.259Z,6.28
2022-08-30T17:08:44.010Z,6.70
2022-08-30T17:11:17.325Z,6.53
2022-08-30T17:13:51.112Z,6.65
2022-08-30T17:16:28.061Z,5.92
2022-08-30T17:19:00.790Z,7.25
2022-08-30T17:21:34.697Z,4.80
2022-08-30T17:24:09.762Z,4.20
2022-08-30T17:26:42.819Z,4.90
2022-08-30T17:29:15.916Z,4.80
2022-08-30T17:31:50.984Z,4.20
2022-08-30T17:34:24.358Z,16.62
2022-08-30T17:37:00.207Z,7.83
2022-08-30T17:39:32.990Z,4.60
2022-08-30T17:42:05.848Z,5.22
2022-08-30T17:44:42.392Z,6.55
2022-08-30T17:49:44.914Z,5.15
2022-08-30T17:52:18.649Z,4.03
2022-08-30T17:54:52.042Z,5.42
2022-08-30T17:57:24.797Z,5.05
2022-08-30T17:59:58.050Z,4.85
2022-08-30T18:02:30.640Z,5.15
2022-08-30T18:05:04.924Z,6.65
2022-08-30T18:07:38.353Z,14.40
2022-08-30T18:10:13.437Z,6.78
2022-08-30T18:12:49.305Z,4.62
2022-08-30T18:17:53.661Z,8.58
2022-08-30T18:20:27.230Z,13.88
2022-08-30T18:23:02.782Z,8.33
2022-08-30T18:28:12.507Z,7.33
2022-08-30T18:30:47.398Z,7.37
2022-08-30T18:33:21.263Z,8.53
2022-08-30T18:35:53.860Z,7.72
2022-08-30T18:38:26.431Z,8.20
2022-08-30T18:41:02.529Z,7.15
2022-08-30T18:43:35.684Z,7.22
2022-08-30T18:46:10.563Z,6.08
2022-08-30T18:48:45.167Z,6.50
2022-08-30T18:51:21.379Z,7.22
2022-08-30T18:53:56.344Z,6.20
2022-08-30T18:59:02.826Z,7.12
2022-08-30T19:01:37.698Z,7.00
2022-08-30T19:04:22.337Z,6.70
2022-08-30T19:06:47.551Z,6.12
2022-08-30T19:09:21.008Z,14.05
2022-08-30T19:11:53.696Z,6.67
2022-08-30T19:14:28.066Z,5.55
2022-08-30T19:17:06.488Z,5.45
2022-08-30T19:19:48.372Z,4.90
2022-08-30T19:22:13.985Z,8.23
2022-08-30T19:24:51.327Z,16.07
2022-08-30T19:27:37.551Z,7.17
2022-08-30T19:29:58.322Z,5.25
2022-08-30T19:32:31.465Z,5.72
2022-08-30T19:35:04.151Z,14.78
2022-08-30T19:37:37.393Z,6.05
2022-08-30T19:40:14.415Z,4.60
2022-08-30T19:42:48.101Z,5.45
2022-08-30T19:45:23.826Z,5.60
2022-08-30T19:47:57.910Z,4.70
2022-08-30T19:50:30.415Z,9.70
2022-08-30T19:53:03.729Z,12.93
2022-08-30T19:55:37.354Z,7.33
2022-08-30T19:58:10.517Z,7.00
2022-08-30T20:00:54.566Z,7.20
2022-08-30T20:03:20.309Z,11.55
2022-08-30T20:05:54.097Z,23.70
2022-08-30T20:11:01.560Z,10.30
2022-08-30T20:13:34.421Z,8.50
2022-08-30T20:16:07.675Z,8.48
2022-08-30T20:18:42.672Z,8.68
2022-08-30T20:21:16.705Z,7.60
2022-08-30T20:23:50.207Z,8.93
2022-08-30T20:26:27.414Z,7.40
2022-08-30T20:28:59.822Z,6.35
2022-08-30T20:31:34.239Z,6.42
2022-08-30T20:34:06.942Z,5.80
2022-08-30T20:36:40.601Z,6.00
2022-08-30T20:39:17.415Z,6.40
2022-08-30T20:41:50.276Z,7.55
2022-08-30T20:44:24.055Z,7.50
2022-08-30T20:46:58.092Z,6.50
2022-08-30T20:49:31.000Z,6.60
2022-08-30T20:52:04.980Z,7.10
2022-08-30T20:54:38.490Z,6.55
2022-08-30T20:57:11.033Z,7.35
2022-08-30T20:59:45.486Z,5.97
2022-08-30T21:02:19.062Z,7.65
2022-08-30T21:04:51.626Z,8.45
2022-08-30T21:07:24.302Z,6.60
2022-08-30T21:09:56.938Z,5.97
2022-08-30T21:12:30.855Z,5.12
2022-08-30T21:15:26.976Z,4.72
2022-08-30T21:20:13.597Z,4.95
2022-08-30T21:22:46.314Z,5.50
2022-08-30T21:25:19.964Z,4.60
2022-08-30T21:27:53.859Z,5.53
2022-08-30T21:30:26.818Z,5.42
2022-08-30T21:33:00.431Z,4.83
2022-08-30T21:35:52.398Z,5.03
2022-08-30T21:38:25.177Z,4.67
2022-08-30T21:40:57.569Z,4.80
2022-08-30T21:43:30.046Z,5.35
2022-08-30T21:46:09.471Z,5.10
2022-08-30T21:48:43.215Z,4.95
2022-08-30T21:51:15.920Z,6.75
2022-08-30T21:53:49.468Z,4.87
2022-08-30T21:56:23.590Z,4.50
2022-08-30T21:58:57.208Z,4.28
2022-08-30T22:01:31.001Z,4.65
2022-08-30T22:04:04.850Z,4.40
2022-08-30T22:06:38.502Z,4.25
2022-08-30T22:09:14.097Z,4.70
2022-08-30T22:11:47.599Z,4.42
2022-08-30T22:14:23.551Z,4.70
2022-08-30T22:16:56.785Z,4.50
2022-08-30T22:19:33.808Z,5.25
2022-08-30T22:22:04.015Z,5.30
2022-08-30T22:24:36.947Z,5.40
2022-08-30T22:27:10.127Z,5.45
2022-08-30T22:29:42.690Z,5.65
2022-08-30T22:32:15.126Z,5.92
2022-08-30T22:34:48.063Z,6.45
2022-08-30T22:37:21.705Z,6.08
2022-08-30T22:39:54.978Z,5.97
2022-08-30T22:42:28.155Z,6.28
2022-08-30T22:45:00.802Z,6.17
2022-08-30T22:47:33.544Z,6.62
2022-08-30T22:50:06.821Z,6.85
2022-08-30T22:55:22.373Z,7.17
2022-08-30T22:57:55.507Z,7.25
2022-08-30T23:00:28.213Z,7.12
2022-08-30T23:03:00.931Z,7.53
2022-08-30T23:05:33.638Z,7.30
2022-08-30T23:08:08.321Z,7.75
2022-08-30T23:10:42.410Z,7.95
2022-08-30T23:13:15.352Z,8.53
2022-08-30T23:15:48.062Z,8.30
2022-08-30T23:18:20.637Z,9.40
2022-08-30T23:20:53.526Z,8.50
2022-08-30T23:23:44.121Z,8.85
2022-08-30T23:26:37.386Z,9.25
2022-08-30T23:29:26.231Z,9.55
2022-08-30T23:32:17.183Z,9.98
2022-08-30T23:35:07.560Z,8.88
2022-08-30T23:37:58.725Z,9.58
2022-08-30T23:40:49.385Z,8.65
2022-08-30T23:43:39.593Z,8.83
2022-08-30T23:46:30.652Z,9.48
2022-08-30T23:49:21.421Z,9.08
2022-08-30T23:52:12.400Z,8.95
2022-08-30T23:55:02.507Z,8.18
2022-08-30T23:57:53.257Z,8.35
